sensor_id;sensor_type;location;lat;lon;timestamp;pressure;altitude;pressure_sealevel;temperature;humidity
8653;BME280;4364;52.426;9.424;2024-01-10T00:00:41;102912.41;;;-7.59;83.80
8653;BME280;4364;52.426;9.424;2024-01-10T00:03:07;102901.84;;;-7.59;84.57
8653;BME280;4364;52.426;9.424;2024-01-10T00:05:34;102908.84;;;-7.58;84.51
8653;BME280;4364;52.426;9.424;2024-01-10T00:08:00;102905.13;;;-7.55;84.13
8653;BME280;4364;52.426;9.424;2024-01-10T00:10:27;102895.84;;;-7.61;84.67
8653;BME280;4364;52.426;9.424;2024-01-10T00:12:53;102892.69;;;-7.53;84.29
8653;BME280;4364;52.426;9.424;2024-01-10T00:15:20;102888.22;;;-7.53;84.46
8653;BME280;4364;52.426;9.424;2024-01-10T00:17:46;102887.50;;;-7.55;84.63
8653;BME280;4364;52.426;9.424;2024-01-10T00:20:13;102894.25;;;-7.51;84.47
8653;BME280;4364;52.426;9.424;2024-01-10T00:22:39;102887.50;;;-7.55;84.26
8653;BME280;4364;52.426;9.424;2024-01-10T00:25:06;102887.25;;;-7.52;84.59
8653;BME280;4364;52.426;9.424;2024-01-10T00:27:33;102879.66;;;-7.69;84.82
8653;BME280;4364;52.426;9.424;2024-01-10T00:30:00;102877.09;;;-7.71;85.40
8653;BME280;4364;52.426;9.424;2024-01-10T00:32:27;102872.44;;;-7.67;85.34
8653;BME280;4364;52.426;9.424;2024-01-10T00:34:53;102875.41;;;-7.59;85.30
8653;BME280;4364;52.426;9.424;2024-01-10T00:37:20;102875.00;;;-7.66;85.82
8653;BME280;4364;52.426;9.424;2024-01-10T00:39:46;102876.06;;;-7.68;85.97
8653;BME280;4364;52.426;9.424;2024-01-10T00:42:13;102879.84;;;-7.72;86.14
8653;BME280;4364;52.426;9.424;2024-01-10T00:44:39;102875.72;;;-7.64;85.99
8653;BME280;4364;52.426;9.424;2024-01-10T00:47:06;102873.75;;;-7.60;86.15
8653;BME280;4364;52.426;9.424;2024-01-10T00:49:33;102868.03;;;-7.67;85.81
8653;BME280;4364;52.426;9.424;2024-01-10T00:51:59;102868.13;;;-7.68;85.97
8653;BME280;4364;52.426;9.424;2024-01-10T00:54:26;102885.66;;;-7.80;86.18
8653;BME280;4364;52.426;9.424;2024-01-10T00:56:52;102881.41;;;-7.83;86.92
8653;BME280;4364;52.426;9.424;2024-01-10T00:59:19;102882.28;;;-7.69;87.45
8653;BME280;4364;52.426;9.424;2024-01-10T01:01:47;102884.41;;;-7.61;86.71
8653;BME280;4364;52.426;9.424;2024-01-10T01:04:13;102882.91;;;-7.66;86.89
8653;BME280;4364;52.426;9.424;2024-01-10T01:06:40;102884.19;;;-7.71;87.06
8653;BME280;4364;52.426;9.424;2024-01-10T01:09:06;102877.94;;;-7.70;87.02
8653;BME280;4364;52.426;9.424;2024-01-10T01:11:33;102883.88;;;-7.67;87.15
8653;BME280;4364;52.426;9.424;2024-01-10T01:13:59;102883.44;;;-7.60;87.16
8653;BME280;4364;52.426;9.424;2024-01-10T01:16:26;102881.13;;;-7.65;87.20
8653;BME280;4364;52.426;9.424;2024-01-10T01:18:53;102883.16;;;-7.56;86.87
8653;BME280;4364;52.426;9.424;2024-01-10T01:21:19;102877.88;;;-7.56;86.93
8653;BME280;4364;52.426;9.424;2024-01-10T01:23:46;102879.66;;;-7.69;87.30
8653;BME280;4364;52.426;9.424;2024-01-10T01:26:12;102879.09;;;-7.74;86.83
8653;BME280;4364;52.426;9.424;2024-01-10T01:28:40;102877.41;;;-7.75;87.51
8653;BME280;4364;52.426;9.424;2024-01-10T01:31:07;102883.03;;;-7.67;87.12
8653;BME280;4364;52.426;9.424;2024-01-10T01:33:33;102880.81;;;-7.73;87.37
8653;BME280;4364;52.426;9.424;2024-01-10T01:36:00;102891.16;;;-7.70;87.52
8653;BME280;4364;52.426;9.424;2024-01-10T01:38:27;102885.31;;;-7.75;87.19
8653;BME280;4364;52.426;9.424;2024-01-10T01:40:53;102885.31;;;-7.75;87.98
8653;BME280;4364;52.426;9.424;2024-01-10T01:43:21;102876.66;;;-7.77;88.15
8653;BME280;4364;52.426;9.424;2024-01-10T01:45:51;102879.00;;;-7.73;87.94
8653;BME280;4364;52.426;9.424;2024-01-10T01:48:19;102881.44;;;-7.70;87.87
8653;BME280;4364;52.426;9.424;2024-01-10T01:50:47;102874.56;;;-7.72;87.53
8653;BME280;4364;52.426;9.424;2024-01-10T01:53:14;102876.88;;;-7.80;87.78
8653;BME280;4364;52.426;9.424;2024-01-10T01:55:43;102867.47;;;-7.72;87.53
8653;BME280;4364;52.426;9.424;2024-01-10T01:58:11;102869.47;;;-7.75;87.94
8653;BME280;4364;52.426;9.424;2024-01-10T02:00:39;102863.47;;;-7.77;87.81
8653;BME280;4364;52.426;9.424;2024-01-10T02:03:07;102865.88;;;-7.87;87.92
8653;BME280;4364;52.426;9.424;2024-01-10T02:05:35;102862.91;;;-7.83;88.07
8653;BME280;4364;52.426;9.424;2024-01-10T02:08:02;102855.19;;;-7.86;88.50
8653;BME280;4364;52.426;9.424;2024-01-10T02:10:29;102859.00;;;-7.90;88.45
8653;BME280;4364;52.426;9.424;2024-01-10T02:12:55;102861.31;;;-7.85;88.65
8653;BME280;4364;52.426;9.424;2024-01-10T02:15:22;102862.00;;;-7.82;88.46
8653;BME280;4364;52.426;9.424;2024-01-10T02:17:49;102865.44;;;-7.94;88.32
8653;BME280;4364;52.426;9.424;2024-01-10T02:20:16;102858.25;;;-7.92;88.78
8653;BME280;4364;52.426;9.424;2024-01-10T02:22:47;102855.19;;;-7.86;89.04
8653;BME280;4364;52.426;9.424;2024-01-10T02:25:13;102856.56;;;-7.93;88.88
8653;BME280;4364;52.426;9.424;2024-01-10T02:27:40;102858.25;;;-7.92;89.25
8653;BME280;4364;52.426;9.424;2024-01-10T02:30:08;102857.22;;;-7.89;89.56
8653;BME280;4364;52.426;9.424;2024-01-10T02:32:35;102858.91;;;-7.88;89.56
8653;BME280;4364;52.426;9.424;2024-01-10T02:35:03;102858.03;;;-7.89;89.49
8653;BME280;4364;52.426;9.424;2024-01-10T02:37:30;102856.38;;;-7.90;89.47
8653;BME280;4364;52.426;9.424;2024-01-10T02:39:56;102856.38;;;-7.90;89.50
8653;BME280;4364;52.426;9.424;2024-01-10T02:42:23;102852.13;;;-7.92;89.41
8653;BME280;4364;52.426;9.424;2024-01-10T02:44:49;102845.03;;;-7.92;89.11
8653;BME280;4364;52.426;9.424;2024-01-10T02:47:16;102849.91;;;-7.86;88.93
8653;BME280;4364;52.426;9.424;2024-01-10T02:49:42;102848.31;;;-8.01;89.16
8653;BME280;4364;52.426;9.424;2024-01-10T02:52:09;102856.22;;;-8.01;89.16
8653;BME280;4364;52.426;9.424;2024-01-10T02:54:35;102852.50;;;-8.11;89.58
8653;BME280;4364;52.426;9.424;2024-01-10T02:57:02;102847.63;;;-8.17;90.16
8653;BME280;4364;52.426;9.424;2024-01-10T02:59:29;102844.06;;;-8.16;90.60
8653;BME280;4364;52.426;9.424;2024-01-10T03:01:55;102841.59;;;-8.20;90.68
8653;BME280;4364;52.426;9.424;2024-01-10T03:04:22;102844.44;;;-8.23;91.18
8653;BME280;4364;52.426;9.424;2024-01-10T03:06:48;102844.06;;;-8.16;91.17
8653;BME280;4364;52.426;9.424;2024-01-10T03:09:15;102845.81;;;-8.17;91.26
8653;BME280;4364;52.426;9.424;2024-01-10T03:11:42;102850.56;;;-8.22;91.22
8653;BME280;4364;52.426;9.424;2024-01-10T03:14:10;102843.91;;;-8.28;91.66
8653;BME280;4364;52.426;9.424;2024-01-10T03:16:37;102843.59;;;-8.23;92.24
8653;BME280;4364;52.426;9.424;2024-01-10T03:19:04;102850.16;;;-8.16;92.01
8653;BME280;4364;52.426;9.424;2024-01-10T03:21:31;102833.88;;;-8.23;92.02
8653;BME280;4364;52.426;9.424;2024-01-10T03:23:59;102846.16;;;-8.22;92.29
8653;BME280;4364;52.426;9.424;2024-01-10T03:26:27;102837.88;;;-8.30;92.28
8653;BME280;4364;52.426;9.424;2024-01-10T03:28:54;102830.25;;;-8.34;92.60
8653;BME280;4364;52.426;9.424;2024-01-10T03:31:21;102827.72;;;-8.36;92.57
8653;BME280;4364;52.426;9.424;2024-01-10T03:33:47;102819.38;;;-8.43;93.15
8653;BME280;4364;52.426;9.424;2024-01-10T03:36:16;102822.25;;;-8.33;93.42
8653;BME280;4364;52.426;9.424;2024-01-10T03:38:43;102824.34;;;-8.38;93.07
8653;BME280;4364;52.426;9.424;2024-01-10T03:41:14;102816.63;;;-8.41;93.02
8653;BME280;4364;52.426;9.424;2024-01-10T03:43:41;102817.34;;;-8.39;93.47
8653;BME280;4364;52.426;9.424;2024-01-10T03:46:08;102804.06;;;-8.38;93.30
8653;BME280;4364;52.426;9.424;2024-01-10T03:48:35;102812.28;;;-8.42;93.46
8653;BME280;4364;52.426;9.424;2024-01-10T03:51:02;102811.47;;;-8.43;93.82
8653;BME280;4364;52.426;9.424;2024-01-10T03:53:29;102804.59;;;-8.32;93.96
8653;BME280;4364;52.426;9.424;2024-01-10T03:55:56;102812.13;;;-8.26;93.25
8653;BME280;4364;52.426;9.424;2024-01-10T03:58:23;102799.41;;;-8.34;92.94
8653;BME280;4364;52.426;9.424;2024-01-10T04:00:50;102808.50;;;-8.25;93.14
8653;BME280;4364;52.426;9.424;2024-01-10T04:03:16;102806.44;;;-8.20;93.07
8653;BME280;4364;52.426;9.424;2024-01-10T04:05:43;102807.09;;;-8.16;92.83
8653;BME280;4364;52.426;9.424;2024-01-10T04:08:09;102811.00;;;-8.09;92.01
8653;BME280;4364;52.426;9.424;2024-01-10T04:10:36;102806.31;;;-8.19;92.10
8653;BME280;4364;52.426;9.424;2024-01-10T04:13:02;102805.81;;;-8.11;92.47
8653;BME280;4364;52.426;9.424;2024-01-10T04:15:29;102811.88;;;-7.96;91.80
8653;BME280;4364;52.426;9.424;2024-01-10T04:17:55;102808.16;;;-8.06;91.34
8653;BME280;4364;52.426;9.424;2024-01-10T04:20:22;102806.50;;;-7.94;91.30
8653;BME280;4364;52.426;9.424;2024-01-10T04:22:49;102806.03;;;-8.14;91.02
8653;BME280;4364;52.426;9.424;2024-01-10T04:25:15;102814.56;;;-8.10;89.86
8653;BME280;4364;52.426;9.424;2024-01-10T04:27:41;102812.13;;;-8.26;90.03
8653;BME280;4364;52.426;9.424;2024-01-10T04:30:08;102804.41;;;-8.29;90.68
8653;BME280;4364;52.426;9.424;2024-01-10T04:32:35;102803.13;;;-8.24;90.83
8653;BME280;4364;52.426;9.424;2024-01-10T04:35:02;102804.84;;;-8.23;90.42
8653;BME280;4364;52.426;9.424;2024-01-10T04:37:29;102798.50;;;-8.33;90.65
8653;BME280;4364;52.426;9.424;2024-01-10T04:39:55;102804.59;;;-8.32;90.59
8653;BME280;4364;52.426;9.424;2024-01-10T04:42:22;102800.94;;;-8.30;90.72
8653;BME280;4364;52.426;9.424;2024-01-10T04:44:48;102801.75;;;-8.29;91.27
8653;BME280;4364;52.426;9.424;2024-01-10T04:47:16;102798.72;;;-8.23;91.04
8653;BME280;4364;52.426;9.424;2024-01-10T04:49:42;102796.81;;;-8.21;90.79
8653;BME280;4364;52.426;9.424;2024-01-10T04:52:09;102801.47;;;-8.25;91.04
8653;BME280;4364;52.426;9.424;2024-01-10T04:54:35;102795.75;;;-8.19;90.73
8653;BME280;4364;52.426;9.424;2024-01-10T04:57:02;102793.03;;;-8.17;90.57
8653;BME280;4364;52.426;9.424;2024-01-10T04:59:28;102791.97;;;-8.14;90.57
8653;BME280;4364;52.426;9.424;2024-01-10T05:01:55;102784.66;;;-8.24;90.34
8653;BME280;4364;52.426;9.424;2024-01-10T05:04:22;102783.63;;;-8.21;90.19
8653;BME280;4364;52.426;9.424;2024-01-10T05:06:48;102791.00;;;-8.26;90.04
8653;BME280;4364;52.426;9.424;2024-01-10T05:09:16;102794.38;;;-8.24;90.11
8653;BME280;4364;52.426;9.424;2024-01-10T05:11:42;102791.84;;;-8.26;90.33
8653;BME280;4364;52.426;9.424;2024-01-10T05:14:10;102784.91;;;-8.27;90.01
8653;BME280;4364;52.426;9.424;2024-01-10T05:16:37;102777.56;;;-8.36;89.79
8653;BME280;4364;52.426;9.424;2024-01-10T05:19:03;102786.09;;;-8.45;90.37
8653;BME280;4364;52.426;9.424;2024-01-10T05:21:32;102779.16;;;-8.46;90.76
8653;BME280;4364;52.426;9.424;2024-01-10T05:23:59;102781.03;;;-8.35;91.00
8653;BME280;4364;52.426;9.424;2024-01-10T05:26:25;102784.13;;;-8.29;90.77
8653;BME280;4364;52.426;9.424;2024-01-10T05:28:52;102776.75;;;-8.24;90.81
8653;BME280;4364;52.426;9.424;2024-01-10T05:31:18;102782.34;;;-8.28;90.36
8653;BME280;4364;52.426;9.424;2024-01-10T05:33:45;102787.50;;;-8.40;90.29
8653;BME280;4364;52.426;9.424;2024-01-10T05:36:12;102786.88;;;-8.43;90.77
8653;BME280;4364;52.426;9.424;2024-01-10T05:38:39;102781.16;;;-8.37;90.76
8653;BME280;4364;52.426;9.424;2024-01-10T05:41:06;102775.03;;;-8.38;91.00
8653;BME280;4364;52.426;9.424;2024-01-10T05:43:33;102779.47;;;-8.25;90.47
8653;BME280;4364;52.426;9.424;2024-01-10T05:45:59;102783.25;;;-8.42;90.10
8653;BME280;4364;52.426;9.424;2024-01-10T05:48:27;102784.94;;;-8.41;89.93
8653;BME280;4364;52.426;9.424;2024-01-10T05:50:54;102788.53;;;-8.42;89.92
8653;BME280;4364;52.426;9.424;2024-01-10T05:53:20;102789.38;;;-8.42;90.26
8653;BME280;4364;52.426;9.424;2024-01-10T05:55:47;102788.97;;;-8.48;90.84
8653;BME280;4364;52.426;9.424;2024-01-10T05:58:13;102783.78;;;-8.37;90.62
8653;BME280;4364;52.426;9.424;2024-01-10T06:00:40;102777.66;;;-8.50;90.14
8653;BME280;4364;52.426;9.424;2024-01-10T06:03:06;102778.06;;;-8.57;90.17
8653;BME280;4364;52.426;9.424;2024-01-10T06:05:34;102779.75;;;-8.55;90.22
8653;BME280;4364;52.426;9.424;2024-01-10T06:08:00;102780.53;;;-8.53;90.58
8653;BME280;4364;52.426;9.424;2024-01-10T06:10:30;102779.94;;;-8.59;90.25
8653;BME280;4364;52.426;9.424;2024-01-10T06:13:01;102773.94;;;-8.61;91.16
8653;BME280;4364;52.426;9.424;2024-01-10T06:15:27;102769.28;;;-8.57;91.09
8653;BME280;4364;52.426;9.424;2024-01-10T06:17:54;102775.44;;;-8.57;90.95
8653;BME280;4364;52.426;9.424;2024-01-10T06:20:21;102782.81;;;-8.62;91.35
8653;BME280;4364;52.426;9.424;2024-01-10T06:22:47;102771.72;;;-8.54;90.85
8653;BME280;4364;52.426;9.424;2024-01-10T06:25:14;102782.25;;;-8.67;91.37
8653;BME280;4364;52.426;9.424;2024-01-10T06:27:40;102790.31;;;-8.55;92.20
8653;BME280;4364;52.426;9.424;2024-01-10T06:30:07;102787.66;;;-8.55;92.33
8653;BME280;4364;52.426;9.424;2024-01-10T06:32:35;102786.44;;;-8.50;92.18
8653;BME280;4364;52.426;9.424;2024-01-10T06:35:02;102779.09;;;-8.59;91.85
8653;BME280;4364;52.426;9.424;2024-01-10T06:37:31;102773.63;;;-8.56;92.20
8653;BME280;4364;52.426;9.424;2024-01-10T06:40:00;102777.81;;;-8.66;92.01
8653;BME280;4364;52.426;9.424;2024-01-10T06:42:26;102774.38;;;-8.81;92.66
8653;BME280;4364;52.426;9.424;2024-01-10T06:44:53;102775.28;;;-8.68;92.37
8653;BME280;4364;52.426;9.424;2024-01-10T06:47:19;102772.38;;;-8.78;92.32
8653;BME280;4364;52.426;9.424;2024-01-10T06:49:47;102774.75;;;-8.73;92.66
8653;BME280;4364;52.426;9.424;2024-01-10T06:52:14;102777.31;;;-8.86;93.06
8653;BME280;4364;52.426;9.424;2024-01-10T06:54:40;102775.03;;;-8.78;93.76
8653;BME280;4364;52.426;9.424;2024-01-10T06:57:07;102770.31;;;-8.72;93.64
8653;BME280;4364;52.426;9.424;2024-01-10T06:59:33;102766.53;;;-8.68;92.43
8653;BME280;4364;52.426;9.424;2024-01-10T07:02:00;102771.84;;;-8.83;92.81
8653;BME280;4364;52.426;9.424;2024-01-10T07:04:28;102761.19;;;-8.81;93.08
8653;BME280;4364;52.426;9.424;2024-01-10T07:06:54;102755.00;;;-8.80;93.41
8653;BME280;4364;52.426;9.424;2024-01-10T07:09:21;102761.09;;;-8.80;93.07
8653;BME280;4364;52.426;9.424;2024-01-10T07:11:48;102756.66;;;-8.79;93.01
8653;BME280;4364;52.426;9.424;2024-01-10T07:14:15;102758.00;;;-8.86;92.85
8653;BME280;4364;52.426;9.424;2024-01-10T07:16:42;102770.47;;;-8.88;92.91
8653;BME280;4364;52.426;9.424;2024-01-10T07:19:12;102763.09;;;-8.83;93.38
8653;BME280;4364;52.426;9.424;2024-01-10T07:21:41;102779.13;;;-8.86;93.47
8653;BME280;4364;52.426;9.424;2024-01-10T07:24:08;102782.41;;;-8.83;93.25
8653;BME280;4364;52.426;9.424;2024-01-10T07:26:36;102781.66;;;-8.85;93.17
8653;BME280;4364;52.426;9.424;2024-01-10T07:29:03;102776.19;;;-8.82;92.64
8653;BME280;4364;52.426;9.424;2024-01-10T07:31:30;102787.22;;;-8.89;92.75
8653;BME280;4364;52.426;9.424;2024-01-10T07:33:57;102780.41;;;-8.79;93.11
8653;BME280;4364;52.426;9.424;2024-01-10T07:36:24;102782.59;;;-8.86;92.96
8653;BME280;4364;52.426;9.424;2024-01-10T07:38:56;102784.94;;;-8.81;92.63
8653;BME280;4364;52.426;9.424;2024-01-10T07:41:26;102778.72;;;-8.80;92.26
8653;BME280;4364;52.426;9.424;2024-01-10T07:43:52;102785.81;;;-8.95;92.68
8653;BME280;4364;52.426;9.424;2024-01-10T07:46:19;102785.22;;;-8.86;92.79
8653;BME280;4364;52.426;9.424;2024-01-10T07:48:46;102784.56;;;-8.75;92.90
8653;BME280;4364;52.426;9.424;2024-01-10T07:51:12;102790.56;;;-8.73;91.83
8653;BME280;4364;52.426;9.424;2024-01-10T07:53:38;102800.38;;;-8.75;92.10
8653;BME280;4364;52.426;9.424;2024-01-10T07:56:05;102790.94;;;-8.79;91.96
8653;BME280;4364;52.426;9.424;2024-01-10T07:58:32;102791.50;;;-8.74;92.31
8653;BME280;4364;52.426;9.424;2024-01-10T08:00:59;102791.41;;;-8.72;91.64
8653;BME280;4364;52.426;9.424;2024-01-10T08:03:25;102803.31;;;-8.80;91.78
8653;BME280;4364;52.426;9.424;2024-01-10T08:05:52;102805.19;;;-8.82;91.79
8653;BME280;4364;52.426;9.424;2024-01-10T08:08:18;102804.88;;;-8.77;92.17
8653;BME280;4364;52.426;9.424;2024-01-10T08:10:45;102804.22;;;-8.81;92.43
8653;BME280;4364;52.426;9.424;2024-01-10T08:13:11;102806.47;;;-8.74;92.32
8653;BME280;4364;52.426;9.424;2024-01-10T08:15:38;102809.97;;;-8.74;92.63
8653;BME280;4364;52.426;9.424;2024-01-10T08:18:04;102813.16;;;-8.69;92.85
8653;BME280;4364;52.426;9.424;2024-01-10T08:20:31;102808.41;;;-8.64;92.42
8653;BME280;4364;52.426;9.424;2024-01-10T08:22:58;102810.38;;;-8.53;92.06
8653;BME280;4364;52.426;9.424;2024-01-10T08:25:25;102808.09;;;-8.45;91.60
8653;BME280;4364;52.426;9.424;2024-01-10T08:27:51;102801.63;;;-8.53;91.30
8653;BME280;4364;52.426;9.424;2024-01-10T08:30:20;102801.31;;;-8.49;91.55
8653;BME280;4364;52.426;9.424;2024-01-10T08:32:48;102811.25;;;-8.40;91.12
8653;BME280;4364;52.426;9.424;2024-01-10T08:35:15;102810.72;;;-8.45;91.15
8653;BME280;4364;52.426;9.424;2024-01-10T08:37:42;102808.84;;;-8.30;90.82
8653;BME280;4364;52.426;9.424;2024-01-10T08:40:12;102802.78;;;-8.32;90.62
8653;BME280;4364;52.426;9.424;2024-01-10T08:42:41;102797.53;;;-8.45;91.36
8653;BME280;4364;52.426;9.424;2024-01-10T08:45:09;102803.88;;;-8.34;91.71
8653;BME280;4364;52.426;9.424;2024-01-10T08:47:37;102793.66;;;-8.26;91.35
8653;BME280;4364;52.426;9.424;2024-01-10T08:50:04;102797.75;;;-8.22;90.82
8653;BME280;4364;52.426;9.424;2024-01-10T08:52:31;102800.72;;;-8.27;90.46
8653;BME280;4364;52.426;9.424;2024-01-10T08:54:58;102806.00;;;-8.27;90.56
8653;BME280;4364;52.426;9.424;2024-01-10T08:57:24;102795.75;;;-8.19;90.38
8653;BME280;4364;52.426;9.424;2024-01-10T08:59:53;102808.66;;;-8.27;90.42
8653;BME280;4364;52.426;9.424;2024-01-10T09:02:20;102803.38;;;-8.14;90.13
8653;BME280;4364;52.426;9.424;2024-01-10T09:04:46;102798.03;;;-7.99;89.83
8653;BME280;4364;52.426;9.424;2024-01-10T09:07:13;102799.69;;;-8.11;89.80
8653;BME280;4364;52.426;9.424;2024-01-10T09:09:40;102803.50;;;-8.03;89.63
8653;BME280;4364;52.426;9.424;2024-01-10T09:12:06;102795.59;;;-8.03;89.99
8653;BME280;4364;52.426;9.424;2024-01-10T09:14:33;102792.75;;;-7.99;89.96
8653;BME280;4364;52.426;9.424;2024-01-10T09:16:59;102792.44;;;-7.95;90.13
8653;BME280;4364;52.426;9.424;2024-01-10T09:19:29;102792.53;;;-7.84;89.89
8653;BME280;4364;52.426;9.424;2024-01-10T09:21:57;102796.88;;;-7.83;88.96
8653;BME280;4364;52.426;9.424;2024-01-10T09:24:23;102794.78;;;-7.65;88.64
8653;BME280;4364;52.426;9.424;2024-01-10T09:26:55;102795.50;;;-7.75;88.44
8653;BME280;4364;52.426;9.424;2024-01-10T09:29:24;102792.13;;;-7.65;87.99
8653;BME280;4364;52.426;9.424;2024-01-10T09:31:50;102792.78;;;-7.61;87.48
8653;BME280;4364;52.426;9.424;2024-01-10T09:34:17;102797.22;;;-7.61;88.05
8653;BME280;4364;52.426;9.424;2024-01-10T09:36:44;102797.53;;;-7.53;87.80
8653;BME280;4364;52.426;9.424;2024-01-10T09:39:10;102782.31;;;-7.50;86.98
8653;BME280;4364;52.426;9.424;2024-01-10T09:41:47;102794.66;;;-7.37;86.17
8653;BME280;4364;52.426;9.424;2024-01-10T09:44:20;102779.41;;;-7.34;85.71
8653;BME280;4364;52.426;9.424;2024-01-10T09:46:51;102790.66;;;-7.43;85.96
8653;BME280;4364;52.426;9.424;2024-01-10T09:49:18;102785.44;;;-7.32;85.71
8653;BME280;4364;52.426;9.424;2024-01-10T09:51:48;102783.19;;;-7.25;85.60
8653;BME280;4364;52.426;9.424;2024-01-10T09:54:16;102776.84;;;-7.10;85.06
8653;BME280;4364;52.426;9.424;2024-01-10T09:56:42;102773.13;;;-7.07;84.56
8653;BME280;4364;52.426;9.424;2024-01-10T09:59:09;102776.97;;;-7.11;84.57
8653;BME280;4364;52.426;9.424;2024-01-10T10:01:38;102778.88;;;-7.13;84.48
8653;BME280;4364;52.426;9.424;2024-01-10T10:04:09;102775.38;;;-7.14;84.37
8653;BME280;4364;52.426;9.424;2024-01-10T10:06:37;102775.00;;;-6.96;83.99
8653;BME280;4364;52.426;9.424;2024-01-10T10:09:04;102770.38;;;-7.05;83.79
8653;BME280;4364;52.426;9.424;2024-01-10T10:11:33;102768.13;;;-6.99;83.71
8653;BME280;4364;52.426;9.424;2024-01-10T10:14:13;102771.59;;;-6.98;83.74
8653;BME280;4364;52.426;9.424;2024-01-10T10:16:40;102762.69;;;-6.84;83.63
8653;BME280;4364;52.426;9.424;2024-01-10T10:19:07;102761.41;;;-6.79;83.28
8653;BME280;4364;52.426;9.424;2024-01-10T10:21:35;102756.09;;;-6.79;83.04
8653;BME280;4364;52.426;9.424;2024-01-10T10:24:02;102758.59;;;-6.64;81.52
8653;BME280;4364;52.426;9.424;2024-01-10T10:26:33;102743.66;;;-6.65;81.24
8653;BME280;4364;52.426;9.424;2024-01-10T10:29:00;102739.19;;;-6.65;81.04
8653;BME280;4364;52.426;9.424;2024-01-10T10:31:28;102749.94;;;-6.66;81.67
8653;BME280;4364;52.426;9.424;2024-01-10T10:33:55;102734.97;;;-6.43;80.98
8653;BME280;4364;52.426;9.424;2024-01-10T10:36:22;102741.00;;;-6.41;80.81
8653;BME280;4364;52.426;9.424;2024-01-10T10:38:48;102738.09;;;-6.49;80.13
8653;BME280;4364;52.426;9.424;2024-01-10T10:41:15;102732.19;;;-6.53;80.04
8653;BME280;4364;52.426;9.424;2024-01-10T10:43:42;102736.38;;;-6.50;80.23
8653;BME280;4364;52.426;9.424;2024-01-10T10:46:09;102737.03;;;-6.36;80.23
8653;BME280;4364;52.426;9.424;2024-01-10T10:48:39;102735.59;;;-6.28;79.69
8653;BME280;4364;52.426;9.424;2024-01-10T10:51:18;102728.91;;;-6.21;78.90
8653;BME280;4364;52.426;9.424;2024-01-10T10:53:45;102733.00;;;-6.17;78.38
8653;BME280;4364;52.426;9.424;2024-01-10T10:56:13;102733.00;;;-6.17;78.68
8653;BME280;4364;52.426;9.424;2024-01-10T10:58:42;102737.72;;;-6.09;78.63
8653;BME280;4364;52.426;9.424;2024-01-10T11:01:13;102735.31;;;-6.12;78.11
8653;BME280;4364;52.426;9.424;2024-01-10T11:03:41;102737.50;;;-6.06;78.48
8653;BME280;4364;52.426;9.424;2024-01-10T11:06:14;102736.06;;;-5.99;78.22
8653;BME280;4364;52.426;9.424;2024-01-10T11:08:48;102734.81;;;-5.95;78.77
8653;BME280;4364;52.426;9.424;2024-01-10T11:11:32;102735.44;;;-5.80;77.92
8653;BME280;4364;52.426;9.424;2024-01-10T11:14:56;102728.56;;;-5.71;76.03
8653;BME280;4364;52.426;9.424;2024-01-10T11:17:19;102718.94;;;-5.50;75.27
8653;BME280;4364;52.426;9.424;2024-01-10T11:20:04;102723.88;;;-5.56;74.92
8653;BME280;4364;52.426;9.424;2024-01-10T11:25:35;102714.72;;;-5.41;75.19
8653;BME280;4364;52.426;9.424;2024-01-10T11:28:06;102716.75;;;-5.45;74.58
8653;BME280;4364;52.426;9.424;2024-01-10T11:30:48;102719.88;;;-5.28;73.69
8653;BME280;4364;52.426;9.424;2024-01-10T11:33:31;102712.91;;;-5.29;73.96
8653;BME280;4364;52.426;9.424;2024-01-10T11:38:32;102707.09;;;-5.23;74.14
8653;BME280;4364;52.426;9.424;2024-01-10T11:41:00;102706.00;;;-5.09;72.93
8653;BME280;4364;52.426;9.424;2024-01-10T11:43:30;102707.44;;;-5.16;73.18
8653;BME280;4364;52.426;9.424;2024-01-10T11:45:57;102701.63;;;-5.10;73.08
8653;BME280;4364;52.426;9.424;2024-01-10T11:48:27;102701.53;;;-5.09;72.68
8653;BME280;4364;52.426;9.424;2024-01-10T11:50:55;102709.34;;;-4.96;72.03
8653;BME280;4364;52.426;9.424;2024-01-10T11:53:42;102708.31;;;-4.84;71.64
8653;BME280;4364;52.426;9.424;2024-01-10T11:56:10;102704.09;;;-4.86;71.21
8653;BME280;4364;52.426;9.424;2024-01-10T11:58:55;102701.94;;;-4.81;71.25
8653;BME280;4364;52.426;9.424;2024-01-10T12:01:22;102699.88;;;-4.77;71.38
8653;BME280;4364;52.426;9.424;2024-01-10T12:03:51;102700.91;;;-4.69;71.33
8653;BME280;4364;52.426;9.424;2024-01-10T12:06:38;102703.28;;;-4.54;71.36
8653;BME280;4364;52.426;9.424;2024-01-10T12:09:05;102698.78;;;-4.54;71.23
8653;BME280;4364;52.426;9.424;2024-01-10T12:11:35;102698.75;;;-4.42;70.51
8653;BME280;4364;52.426;9.424;2024-01-10T12:14:02;102695.63;;;-4.48;70.96
8653;BME280;4364;52.426;9.424;2024-01-10T12:16:28;102689.66;;;-4.40;69.90
8653;BME280;4364;52.426;9.424;2024-01-10T12:18:55;102697.44;;;-4.27;70.17
8653;BME280;4364;52.426;9.424;2024-01-10T12:21:22;102694.53;;;-4.24;69.07
8653;BME280;4364;52.426;9.424;2024-01-10T12:23:49;102692.97;;;-4.26;69.94
8653;BME280;4364;52.426;9.424;2024-01-10T12:26:18;102700.16;;;-4.17;69.29
8653;BME280;4364;52.426;9.424;2024-01-10T12:28:55;102701.19;;;-4.08;69.19
8653;BME280;4364;52.426;9.424;2024-01-10T12:31:23;102694.75;;;-4.06;68.91
8653;BME280;4364;52.426;9.424;2024-01-10T12:33:49;102702.72;;;-4.06;69.11
8653;BME280;4364;52.426;9.424;2024-01-10T12:36:17;102696.84;;;-4.10;68.86
8653;BME280;4364;52.426;9.424;2024-01-10T12:38:44;102704.56;;;-4.06;69.16
8653;BME280;4364;52.426;9.424;2024-01-10T12:41:11;102693.00;;;-3.96;68.44
8653;BME280;4364;52.426;9.424;2024-01-10T12:43:39;102694.88;;;-3.86;68.86
8653;BME280;4364;52.426;9.424;2024-01-10T12:46:11;102687.72;;;-3.86;68.34
8653;BME280;4364;52.426;9.424;2024-01-10T12:48:39;102684.72;;;-3.72;67.91
8653;BME280;4364;52.426;9.424;2024-01-10T12:51:10;102686.09;;;-3.77;67.74
8653;BME280;4364;52.426;9.424;2024-01-10T12:53:43;102683.00;;;-3.82;68.18
8653;BME280;4364;52.426;9.424;2024-01-10T12:56:10;102692.00;;;-3.74;67.63
8653;BME280;4364;52.426;9.424;2024-01-10T12:58:41;102678.88;;;-3.65;67.53
8653;BME280;4364;52.426;9.424;2024-01-10T13:01:09;102677.25;;;-3.78;68.05
8653;BME280;4364;52.426;9.424;2024-01-10T13:03:35;102679.84;;;-3.66;67.87
8653;BME280;4364;52.426;9.424;2024-01-10T13:06:02;102681.41;;;-3.64;67.55
8653;BME280;4364;52.426;9.424;2024-01-10T13:08:29;102678.97;;;-3.77;66.57
8653;BME280;4364;52.426;9.424;2024-01-10T13:10:56;102677.44;;;-3.69;66.80
8653;BME280;4364;52.426;9.424;2024-01-10T13:13:23;102675.66;;;-3.59;66.66
8653;BME280;4364;52.426;9.424;2024-01-10T13:15:49;102682.94;;;-3.61;65.81
8653;BME280;4364;52.426;9.424;2024-01-10T13:18:16;102674.72;;;-3.48;66.50